sensor_id;sensor_type;location;lat;lon;timestamp;pressure;altitude;pressure_sealevel;temperature;humidity
45872;BME280;32333;55.844;-3.210;2022-12-05T00:14:40;100756.19;;;2.02;100.00
45872;BME280;32333;55.844;-3.210;2022-12-05T00:29:13;100756.48;;;2.18;100.00
45872;BME280;32333;55.844;-3.210;2022-12-05T00:31:41;100753.93;;;2.37;100.00
45872;BME280;32333;55.844;-3.210;2022-12-05T00:34:10;100757.94;;;2.27;100.00
45872;BME280;32333;55.844;-3.210;2022-12-05T00:36:41;100755.16;;;2.49;100.00
45872;BME280;32333;55.844;-3.210;2022-12-05T00:39:11;100758.01;;;1.41;100.00
45872;BME280;32333;55.844;-3.210;2022-12-05T00:41:40;100764.05;;;2.02;100.00
45872;BME280;32333;55.844;-3.210;2022-12-05T00:44:37;100763.41;;;1.74;100.00
45872;BME280;32333;55.844;-3.210;2022-12-05T00:47:06;100756.03;;;2.50;100.00
45872;BME280;32333;55.844;-3.210;2022-12-05T00:49:35;100758.31;;;2.19;100.00
45872;BME280;32333;55.844;-3.210;2022-12-05T00:52:05;100760.41;;;2.81;100.00
45872;BME280;32333;55.844;-3.210;2022-12-05T00:54:35;100760.28;;;2.48;100.00
45872;BME280;32333;55.844;-3.210;2022-12-05T00:57:05;100766.81;;;2.68;100.00
45872;BME280;32333;55.844;-3.210;2022-12-05T00:59:35;100775.69;;;1.81;100.00
45872;BME280;32333;55.844;-3.210;2022-12-05T01:02:05;100771.50;;;2.33;100.00
45872;BME280;32333;55.844;-3.210;2022-12-05T01:04:34;100773.13;;;1.84;100.00
45872;BME280;32333;55.844;-3.210;2022-12-05T01:07:02;100770.24;;;2.10;100.00
45872;BME280;32333;55.844;-3.210;2022-12-05T01:09:32;100769.73;;;2.09;100.00
45872;BME280;32333;55.844;-3.210;2022-12-05T01:12:00;100765.09;;;2.63;100.00
45872;BME280;32333;55.844;-3.210;2022-12-05T01:14:38;100770.28;;;2.85;100.00
45872;BME280;32333;55.844;-3.210;2022-12-05T01:17:06;100769.91;;;2.59;100.00
45872;BME280;32333;55.844;-3.210;2022-12-05T01:19:36;100773.00;;;3.21;100.00
45872;BME280;32333;55.844;-3.210;2022-12-05T01:22:08;100773.90;;;2.62;100.00
45872;BME280;32333;55.844;-3.210;2022-12-05T01:24:37;100770.41;;;4.07;100.00
45872;BME280;32333;55.844;-3.210;2022-12-05T01:27:06;100772.45;;;4.06;100.00
45872;BME280;32333;55.844;-3.210;2022-12-05T01:29:37;100776.73;;;3.75;100.00
45872;BME280;32333;55.844;-3.210;2022-12-05T01:32:06;100775.18;;;3.85;100.00
45872;BME280;32333;55.844;-3.210;2022-12-05T01:34:44;100774.45;;;4.60;100.00
45872;BME280;32333;55.844;-3.210;2022-12-05T01:37:55;100778.90;;;4.73;100.00
45872;BME280;32333;55.844;-3.210;2022-12-05T01:41:01;100782.31;;;3.32;100.00
45872;BME280;32333;55.844;-3.210;2022-12-05T01:46:35;100798.58;;;2.45;100.00
45872;BME280;32333;55.844;-3.210;2022-12-05T01:49:19;100798.29;;;3.06;100.00
45872;BME280;32333;55.844;-3.210;2022-12-05T02:14:43;100789.04;;;2.86;100.00
45872;BME280;32333;55.844;-3.210;2022-12-05T02:17:20;100788.05;;;2.97;100.00
45872;BME280;32333;55.844;-3.210;2022-12-05T02:20:02;100791.60;;;3.30;100.00
45872;BME280;32333;55.844;-3.210;2022-12-05T02:23:39;100792.45;;;4.12;100.00
45872;BME280;32333;55.844;-3.210;2022-12-05T02:44:44;100806.66;;;2.46;100.00
45872;BME280;32333;55.844;-3.210;2022-12-05T05:59:29;100903.37;;;2.23;100.00
45872;BME280;32333;55.844;-3.210;2022-12-05T06:01:58;100901.52;;;1.76;100.00
45872;BME280;32333;55.844;-3.210;2022-12-05T06:04:30;100904.48;;;1.76;100.00
45872;BME280;32333;55.844;-3.210;2022-12-05T06:07:11;100896.11;;;1.74;100.00
45872;BME280;32333;55.844;-3.210;2022-12-05T06:09:40;100903.78;;;1.62;100.00
45872;BME280;32333;55.844;-3.210;2022-12-05T06:14:46;100910.08;;;2.05;100.00
45872;BME280;32333;55.844;-3.210;2022-12-05T06:47:39;100922.50;;;2.69;100.00
45872;BME280;32333;55.844;-3.210;2022-12-05T07:16:02;100935.29;;;2.19;100.00
45872;BME280;32333;55.844;-3.210;2022-12-05T07:18:51;100939.01;;;0.70;100.00
45872;BME280;32333;55.844;-3.210;2022-12-05T07:21:27;100937.14;;;1.87;100.00
45872;BME280;32333;55.844;-3.210;2022-12-05T07:23:57;100935.23;;;1.53;100.00
45872;BME280;32333;55.844;-3.210;2022-12-05T07:26:25;100936.72;;;1.59;100.00
45872;BME280;32333;55.844;-3.210;2022-12-05T07:28:57;100941.78;;;2.08;100.00
45872;BME280;32333;55.844;-3.210;2022-12-05T07:31:25;100945.76;;;1.63;100.00
45872;BME280;32333;55.844;-3.210;2022-12-05T07:33:53;100950.59;;;2.41;100.00
45872;BME280;32333;55.844;-3.210;2022-12-05T07:36:22;100951.24;;;1.52;100.00
45872;BME280;32333;55.844;-3.210;2022-12-05T07:38:54;100951.39;;;2.45;100.00
45872;BME280;32333;55.844;-3.210;2022-12-05T07:41:28;100952.76;;;1.72;100.00
45872;BME280;32333;55.844;-3.210;2022-12-05T07:52:46;100960.82;;;1.25;100.00
45872;BME280;32333;55.844;-3.210;2022-12-05T07:55:14;100957.71;;;1.04;100.00
45872;BME280;32333;55.844;-3.210;2022-12-05T07:57:42;100957.97;;;2.37;100.00
45872;BME280;32333;55.844;-3.210;2022-12-05T08:00:15;100956.40;;;2.26;100.00
45872;BME280;32333;55.844;-3.210;2022-12-05T08:02:43;100963.98;;;2.56;100.00
45872;BME280;32333;55.844;-3.210;2022-12-05T08:05:12;100962.69;;;1.75;100.00
45872;BME280;32333;55.844;-3.210;2022-12-05T08:07:39;100966.86;;;1.87;100.00
45872;BME280;32333;55.844;-3.210;2022-12-05T08:10:11;100963.44;;;1.27;100.00
45872;BME280;32333;55.844;-3.210;2022-12-05T08:14:37;100971.68;;;1.27;100.00
45872;BME280;32333;55.844;-3.210;2022-12-05T08:17:06;100969.62;;;1.53;100.00
45872;BME280;32333;55.844;-3.210;2022-12-05T08:19:35;100968.63;;;2.34;100.00
45872;BME280;32333;55.844;-3.210;2022-12-05T08:22:03;100967.38;;;1.22;100.00
45872;BME280;32333;55.844;-3.210;2022-12-05T08:24:34;100966.69;;;1.14;100.00
45872;BME280;32333;55.844;-3.210;2022-12-05T08:27:06;100966.25;;;0.81;100.00
45872;BME280;32333;55.844;-3.210;2022-12-05T08:36:12;100966.36;;;1.27;100.00
45872;BME280;32333;55.844;-3.210;2022-12-05T08:38:41;100965.27;;;1.22;100.00
45872;BME280;32333;55.844;-3.210;2022-12-05T08:41:12;100963.94;;;1.89;100.00
45872;BME280;32333;55.844;-3.210;2022-12-05T08:44:36;100962.82;;;1.86;100.00
45872;BME280;32333;55.844;-3.210;2022-12-05T08:47:04;100965.22;;;1.72;100.00
45872;BME280;32333;55.844;-3.210;2022-12-05T08:49:31;100969.06;;;2.29;100.00
45872;BME280;32333;55.844;-3.210;2022-12-05T08:52:00;100967.96;;;1.98;100.00
45872;BME280;32333;55.844;-3.210;2022-12-05T08:54:28;100968.62;;;1.71;100.00
45872;BME280;32333;55.844;-3.210;2022-12-05T08:56:56;100972.22;;;1.37;100.00
45872;BME280;32333;55.844;-3.210;2022-12-05T08:59:24;100981.64;;;1.21;100.00
45872;BME280;32333;55.844;-3.210;2022-12-05T09:01:52;100984.34;;;1.35;100.00
45872;BME280;32333;55.844;-3.210;2022-12-05T09:04:20;100990.95;;;1.01;100.00
45872;BME280;32333;55.844;-3.210;2022-12-05T09:06:49;100992.76;;;1.59;100.00
45872;BME280;32333;55.844;-3.210;2022-12-05T09:09:18;100990.49;;;1.80;100.00
45872;BME280;32333;55.844;-3.210;2022-12-05T09:11:47;100996.97;;;2.02;100.00
45872;BME280;32333;55.844;-3.210;2022-12-05T09:14:37;100996.10;;;1.51;100.00
45872;BME280;32333;55.844;-3.210;2022-12-05T09:17:04;100995.04;;;1.94;100.00
45872;BME280;32333;55.844;-3.210;2022-12-05T09:19:32;100990.29;;;1.95;100.00
45872;BME280;32333;55.844;-3.210;2022-12-05T09:22:01;100995.24;;;2.43;100.00
45872;BME280;32333;55.844;-3.210;2022-12-05T09:24:29;101000.11;;;2.27;100.00
45872;BME280;32333;55.844;-3.210;2022-12-05T09:26:57;101004.46;;;1.32;100.00
45872;BME280;32333;55.844;-3.210;2022-12-05T09:29:26;101001.86;;;2.47;100.00
45872;BME280;32333;55.844;-3.210;2022-12-05T09:31:53;101000.17;;;2.54;100.00
45872;BME280;32333;55.844;-3.210;2022-12-05T09:34:23;101000.51;;;2.37;100.00
45872;BME280;32333;55.844;-3.210;2022-12-05T09:36:51;100999.84;;;2.05;100.00
45872;BME280;32333;55.844;-3.210;2022-12-05T09:39:18;100995.64;;;1.78;100.00
45872;BME280;32333;55.844;-3.210;2022-12-05T09:42:00;100996.42;;;2.02;100.00
45872;BME280;32333;55.844;-3.210;2022-12-05T09:44:44;100997.60;;;2.68;100.00
45872;BME280;32333;55.844;-3.210;2022-12-05T09:47:27;101000.18;;;2.70;100.00
45872;BME280;32333;55.844;-3.210;2022-12-05T09:49:59;101004.26;;;2.03;100.00
45872;BME280;32333;55.844;-3.210;2022-12-05T09:52:32;101004.98;;;2.47;100.00
45872;BME280;32333;55.844;-3.210;2022-12-05T09:55:05;101015.19;;;1.39;100.00
45872;BME280;32333;55.844;-3.210;2022-12-05T09:57:43;101010.09;;;1.68;100.00
45872;BME280;32333;55.844;-3.210;2022-12-05T10:00:14;101015.66;;;2.05;100.00
45872;BME280;32333;55.844;-3.210;2022-12-05T10:02:51;101015.63;;;1.70;100.00
45872;BME280;32333;55.844;-3.210;2022-12-05T10:05:27;101021.12;;;2.84;100.00
45872;BME280;32333;55.844;-3.210;2022-12-05T10:08:03;101014.27;;;2.12;100.00
45872;BME280;32333;55.844;-3.210;2022-12-05T10:10:40;101018.62;;;3.06;100.00
45872;BME280;32333;55.844;-3.210;2022-12-05T10:14:41;101018.22;;;2.69;100.00
45872;BME280;32333;55.844;-3.210;2022-12-05T10:17:19;101016.56;;;2.36;100.00
45872;BME280;32333;55.844;-3.210;2022-12-05T10:19:52;101014.51;;;2.43;100.00
45872;BME280;32333;55.844;-3.210;2022-12-05T10:22:27;101013.22;;;2.42;100.00
45872;BME280;32333;55.844;-3.210;2022-12-05T10:25:01;101010.51;;;3.61;100.00
45872;BME280;32333;55.844;-3.210;2022-12-05T10:27:46;101005.84;;;4.32;100.00
45872;BME280;32333;55.844;-3.210;2022-12-05T10:39:20;101005.86;;;2.56;100.00
45872;BME280;32333;55.844;-3.210;2022-12-05T10:41:48;101005.39;;;2.68;100.00
45872;BME280;32333;55.844;-3.210;2022-12-05T10:44:36;101012.17;;;2.76;100.00
45872;BME280;32333;55.844;-3.210;2022-12-05T10:47:04;101009.77;;;2.04;100.00
45872;BME280;32333;55.844;-3.210;2022-12-05T10:49:33;101010.33;;;1.46;100.00
45872;BME280;32333;55.844;-3.210;2022-12-05T10:52:01;101007.68;;;2.31;100.00
45872;BME280;32333;55.844;-3.210;2022-12-05T10:54:34;101008.80;;;1.69;100.00
45872;BME280;32333;55.844;-3.210;2022-12-05T10:57:21;101003.37;;;2.11;100.00
45872;BME280;32333;55.844;-3.210;2022-12-05T10:59:51;101004.11;;;1.94;100.00
45872;BME280;32333;55.844;-3.210;2022-12-05T11:02:24;101006.91;;;2.26;100.00
45872;BME280;32333;55.844;-3.210;2022-12-05T11:04:54;101007.06;;;2.16;100.00
45872;BME280;32333;55.844;-3.210;2022-12-05T11:07:28;101008.23;;;2.39;100.00
45872;BME280;32333;55.844;-3.210;2022-12-05T11:09:57;101005.25;;;2.54;100.00
45872;BME280;32333;55.844;-3.210;2022-12-05T11:14:36;101003.36;;;2.64;100.00
45872;BME280;32333;55.844;-3.210;2022-12-05T11:17:08;101005.25;;;2.89;100.00
45872;BME280;32333;55.844;-3.210;2022-12-05T11:19:49;101004.14;;;2.11;100.00
45872;BME280;32333;55.844;-3.210;2022-12-05T11:22:18;101006.75;;;2.75;100.00
45872;BME280;32333;55.844;-3.210;2022-12-05T11:24:46;101005.94;;;2.49;100.00
45872;BME280;32333;55.844;-3.210;2022-12-05T11:27:27;101004.68;;;2.99;100.00
45872;BME280;32333;55.844;-3.210;2022-12-05T11:30:00;101010.57;;;1.99;100.00
45872;BME280;32333;55.844;-3.210;2022-12-05T11:32:32;101010.88;;;2.71;100.00
45872;BME280;32333;55.844;-3.210;2022-12-05T11:35:08;101010.31;;;2.66;100.00
45872;BME280;32333;55.844;-3.210;2022-12-05T11:37:42;101011.16;;;3.52;100.00
45872;BME280;32333;55.844;-3.210;2022-12-05T11:40:15;101011.84;;;2.66;100.00
45872;BME280;32333;55.844;-3.210;2022-12-05T11:44:53;101009.06;;;2.67;100.00
45872;BME280;32333;55.844;-3.210;2022-12-05T11:47:38;101012.02;;;2.55;100.00
45872;BME280;32333;55.844;-3.210;2022-12-05T11:50:20;101008.68;;;2.30;100.00
45872;BME280;32333;55.844;-3.210;2022-12-05T11:53:00;101011.00;;;1.86;100.00
45872;BME280;32333;55.844;-3.210;2022-12-05T11:55:38;101013.19;;;2.25;100.00
45872;BME280;32333;55.844;-3.210;2022-12-05T11:58:40;101011.80;;;2.04;100.00
45872;BME280;32333;55.844;-3.210;2022-12-05T12:01:18;101013.04;;;1.93;100.00
45872;BME280;32333;55.844;-3.210;2022-12-05T12:04:06;101012.49;;;2.47;100.00
45872;BME280;32333;55.844;-3.210;2022-12-05T12:06:49;101009.30;;;1.83;100.00
45872;BME280;32333;55.844;-3.210;2022-12-05T12:09:31;101011.98;;;2.23;100.00
45872;BME280;32333;55.844;-3.210;2022-12-05T12:14:43;101013.82;;;2.56;100.00
45872;BME280;32333;55.844;-3.210;2022-12-05T12:17:22;101018.45;;;2.41;100.00
45872;BME280;32333;55.844;-3.210;2022-12-05T12:20:11;101013.97;;;3.19;100.00
45872;BME280;32333;55.844;-3.210;2022-12-05T12:22:57;101011.49;;;2.54;100.00
45872;BME280;32333;55.844;-3.210;2022-12-05T12:25:36;101008.15;;;3.26;100.00
45872;BME280;32333;55.844;-3.210;2022-12-05T12:28:20;101010.17;;;2.92;100.00
45872;BME280;32333;55.844;-3.210;2022-12-05T12:32:53;101003.54;;;3.13;100.00
45872;BME280;32333;55.844;-3.210;2022-12-05T12:35:29;101006.90;;;2.14;100.00
45872;BME280;32333;55.844;-3.210;2022-12-05T12:38:29;101013.53;;;2.14;100.00
45872;BME280;32333;55.844;-3.210;2022-12-05T12:41:05;101002.79;;;1.69;100.00
45872;BME280;32333;55.844;-3.210;2022-12-05T12:45:44;101009.56;;;2.76;100.00
45872;BME280;32333;55.844;-3.210;2022-12-05T12:48:27;101006.97;;;1.10;100.00
45872;BME280;32333;55.844;-3.210;2022-12-05T12:51:00;101016.11;;;2.64;100.00
45872;BME280;32333;55.844;-3.210;2022-12-05T12:53:40;101012.51;;;2.95;100.00
45872;BME280;32333;55.844;-3.210;2022-12-05T12:56:21;101012.68;;;2.51;100.00
45872;BME280;32333;55.844;-3.210;2022-12-05T12:58:57;101011.67;;;2.20;100.00
45872;BME280;32333;55.844;-3.210;2022-12-05T13:01:35;101013.76;;;1.82;100.00
45872;BME280;32333;55.844;-3.210;2022-12-05T13:04:09;101011.18;;;2.15;100.00
45872;BME280;32333;55.844;-3.210;2022-12-05T13:06:43;101012.80;;;2.76;100.00
45872;BME280;32333;55.844;-3.210;2022-12-05T13:09:20;101009.42;;;3.07;100.00
45872;BME280;32333;55.844;-3.210;2022-12-05T13:11:52;101013.43;;;3.07;100.00
45872;BME280;32333;55.844;-3.210;2022-12-05T13:39:24;100993.36;;;2.21;100.00
45872;BME280;32333;55.844;-3.210;2022-12-05T13:41:54;100998.74;;;1.60;100.00
45872;BME280;32333;55.844;-3.210;2022-12-05T13:44:40;101001.48;;;1.94;100.00
45872;BME280;32333;55.844;-3.210;2022-12-05T13:47:26;101009.62;;;2.80;100.00
45872;BME280;32333;55.844;-3.210;2022-12-05T13:49:59;101001.41;;;2.17;100.00
45872;BME280;32333;55.844;-3.210;2022-12-05T13:52:39;101003.84;;;2.13;100.00
45872;BME280;32333;55.844;-3.210;2022-12-05T13:55:24;101003.09;;;0.81;100.00
45872;BME280;32333;55.844;-3.210;2022-12-05T13:57:56;100997.54;;;1.65;100.00
45872;BME280;32333;55.844;-3.210;2022-12-05T14:19:12;101007.88;;;1.64;100.00
45872;BME280;32333;55.844;-3.210;2022-12-05T14:21:52;101012.01;;;0.39;100.00
45872;BME280;32333;55.844;-3.210;2022-12-05T14:44:36;101012.69;;;2.01;100.00
45872;BME280;32333;55.844;-3.210;2022-12-05T14:47:07;101014.15;;;2.45;100.00
45872;BME280;32333;55.844;-3.210;2022-12-05T14:49:58;101014.09;;;2.86;100.00
45872;BME280;32333;55.844;-3.210;2022-12-05T14:52:29;101007.29;;;3.24;100.00
45872;BME280;32333;55.844;-3.210;2022-12-05T14:55:24;101014.35;;;3.66;100.00
45872;BME280;32333;55.844;-3.210;2022-12-05T14:57:55;101015.72;;;3.68;100.00
45872;BME280;32333;55.844;-3.210;2022-12-05T15:00:27;101020.82;;;2.78;100.00
45872;BME280;32333;55.844;-3.210;2022-12-05T15:02:56;101021.95;;;2.07;100.00
45872;BME280;32333;55.844;-3.210;2022-12-05T15:05:30;101021.57;;;1.90;100.00
45872;BME280;32333;55.844;-3.210;2022-12-05T15:08:13;101023.14;;;2.34;100.00
45872;BME280;32333;55.844;-3.210;2022-12-05T15:14:51;101016.64;;;2.42;100.00
45872;BME280;32333;55.844;-3.210;2022-12-05T15:17:50;101013.03;;;1.52;100.00
45872;BME280;32333;55.844;-3.210;2022-12-05T15:20:33;101015.25;;;1.55;100.00
45872;BME280;32333;55.844;-3.210;2022-12-05T15:23:37;101016.49;;;2.11;100.00
45872;BME280;32333;55.844;-3.210;2022-12-05T15:26:11;101016.05;;;2.81;100.00
45872;BME280;32333;55.844;-3.210;2022-12-05T15:28:57;101014.63;;;1.92;100.00
45872;BME280;32333;55.844;-3.210;2022-12-05T15:31:30;101011.65;;;1.78;100.00
45872;BME280;32333;55.844;-3.210;2022-12-05T15:34:11;101013.81;;;2.45;100.00
45872;BME280;32333;55.844;-3.210;2022-12-05T15:36:57;101018.05;;;2.90;100.00
45872;BME280;32333;55.844;-3.210;2022-12-05T15:39:27;101013.73;;;2.14;100.00
45872;BME280;32333;55.844;-3.210;2022-12-05T15:41:56;101010.60;;;1.56;100.00
45872;BME280;32333;55.844;-3.210;2022-12-05T15:44:36;101016.64;;;2.34;100.00
45872;BME280;32333;55.844;-3.210;2022-12-05T15:47:14;101019.14;;;2.57;100.00
45872;BME280;32333;55.844;-3.210;2022-12-05T15:49:46;101021.73;;;2.27;100.00
45872;BME280;32333;55.844;-3.210;2022-12-05T15:52:27;101017.55;;;1.93;100.00
45872;BME280;32333;55.844;-3.210;2022-12-05T15:55:07;101017.16;;;2.00;100.00
45872;BME280;32333;55.844;-3.210;2022-12-05T15:57:45;101020.98;;;2.87;100.00
45872;BME280;32333;55.844;-3.210;2022-12-05T16:00:18;101018.96;;;2.43;100.00
45872;BME280;32333;55.844;-3.210;2022-12-05T16:02:53;101016.94;;;2.04;100.00
45872;BME280;32333;55.844;-3.210;2022-12-05T16:05:34;101018.12;;;2.81;100.00
45872;BME280;32333;55.844;-3.210;2022-12-05T16:08:11;101017.30;;;3.49;100.00
45872;BME280;32333;55.844;-3.210;2022-12-05T16:10:40;101016.62;;;2.78;100.00
45872;BME280;32333;55.844;-3.210;2022-12-05T16:14:38;101022.13;;;3.03;100.00
45872;BME280;32333;55.844;-3.210;2022-12-05T16:17:09;101016.45;;;2.74;100.00
45872;BME280;32333;55.844;-3.210;2022-12-05T16:19:41;101017.88;;;3.16;100.00
45872;BME280;32333;55.844;-3.210;2022-12-05T16:24:17;101016.46;;;1.93;100.00
45872;BME280;32333;55.844;-3.210;2022-12-05T16:27:30;101019.34;;;2.37;100.00
45872;BME280;32333;55.844;-3.210;2022-12-05T16:30:17;101018.55;;;2.77;100.00
45872;BME280;32333;55.844;-3.210;2022-12-05T16:32:49;101015.23;;;2.09;100.00
45872;BME280;32333;55.844;-3.210;2022-12-05T16:35:33;101014.51;;;2.39;100.00
45872;BME280;32333;55.844;-3.210;2022-12-05T16:38:47;101013.67;;;1.22;100.00
45872;BME280;32333;55.844;-3.210;2022-12-05T16:41:34;101015.78;;;1.33;100.00
45872;BME280;32333;55.844;-3.210;2022-12-05T16:44:57;101016.98;;;1.54;100.00
45872;BME280;32333;55.844;-3.210;2022-12-05T16:51:19;101016.09;;;1.12;100.00
45872;BME280;32333;55.844;-3.210;2022-12-05T16:53:51;101014.30;;;1.61;100.00
45872;BME280;32333;55.844;-3.210;2022-12-05T17:05:20;101007.01;;;2.14;100.00
45872;BME280;32333;55.844;-3.210;2022-12-05T17:08:14;101015.21;;;2.65;100.00
45872;BME280;32333;55.844;-3.210;2022-12-05T17:11:44;101016.71;;;2.70;100.00
45872;BME280;32333;55.844;-3.210;2022-12-05T17:14:36;101022.12;;;2.66;100.00
45872;BME280;32333;55.844;-3.210;2022-12-05T17:17:11;101026.82;;;2.02;100.00
45872;BME280;32333;55.844;-3.210;2022-12-05T17:19:42;101021.27;;;2.24;100.00
45872;BME280;32333;55.844;-3.210;2022-12-05T17:23:44;101021.00;;;2.39;100.00
45872;BME280;32333;55.844;-3.210;2022-12-05T17:26:18;101023.70;;;1.87;100.00
45872;BME280;32333;55.844;-3.210;2022-12-05T17:28:47;101027.00;;;1.80;100.00
45872;BME280;32333;55.844;-3.210;2022-12-05T17:35:53;101040.24;;;1.74;100.00
45872;BME280;32333;55.844;-3.210;2022-12-05T17:38:22;101041.48;;;0.42;100.00
45872;BME280;32333;55.844;-3.210;2022-12-05T17:40:50;101042.41;;;0.94;100.00
45872;BME280;32333;55.844;-3.210;2022-12-05T17:44:36;101040.69;;;1.58;100.00
45872;BME280;32333;55.844;-3.210;2022-12-05T17:49:34;101037.58;;;1.12;100.00
45872;BME280;32333;55.844;-3.210;2022-12-05T18:19:24;101045.21;;;2.55;100.00
45872;BME280;32333;55.844;-3.210;2022-12-05T18:21:53;101047.18;;;3.14;100.00
45872;BME280;32333;55.844;-3.210;2022-12-05T18:24:21;101049.94;;;2.10;100.00
45872;BME280;32333;55.844;-3.210;2022-12-05T18:26:49;101045.67;;;2.19;100.00
45872;BME280;32333;55.844;-3.210;2022-12-05T18:29:17;101041.45;;;2.54;100.00
45872;BME280;32333;55.844;-3.210;2022-12-05T18:31:45;101041.16;;;2.94;100.00
45872;BME280;32333;55.844;-3.210;2022-12-05T18:34:13;101042.21;;;2.07;100.00
45872;BME280;32333;55.844;-3.210;2022-12-05T18:36:41;101049.73;;;1.87;100.00
45872;BME280;32333;55.844;-3.210;2022-12-05T18:39:12;101051.41;;;1.87;100.00
45872;BME280;32333;55.844;-3.210;2022-12-05T18:41:40;101050.31;;;2.19;100.00
45872;BME280;32333;55.844;-3.210;2022-12-05T18:44:37;101044.34;;;1.97;100.00
45872;BME280;32333;55.844;-3.210;2022-12-05T18:47:06;101039.06;;;2.03;100.00
45872;BME280;32333;55.844;-3.210;2022-12-05T18:49:39;101039.51;;;2.80;100.00
45872;BME280;32333;55.844;-3.210;2022-12-05T18:52:06;101041.62;;;2.54;100.00
45872;BME280;32333;55.844;-3.210;2022-12-05T18:54:35;101042.86;;;2.36;100.00
45872;BME280;32333;55.844;-3.210;2022-12-05T18:57:02;101045.36;;;2.59;100.00
45872;BME280;32333;55.844;-3.210;2022-12-05T18:59:31;101047.37;;;3.36;100.00
45872;BME280;32333;55.844;-3.210;2022-12-05T19:02:01;101048.96;;;3.35;100.00
45872;BME280;32333;55.844;-3.210;2022-12-05T19:04:31;101047.21;;;1.91;100.00
45872;BME280;32333;55.844;-3.210;2022-12-05T19:07:04;101054.04;;;2.43;100.00
45872;BME280;32333;55.844;-3.210;2022-12-05T19:09:35;101054.50;;;2.37;100.00
45872;BME280;32333;55.844;-3.210;2022-12-05T19:15:04;101046.18;;;2.38;100.00
45872;BME280;32333;55.844;-3.210;2022-12-05T19:17:33;101043.15;;;3.10;100.00
45872;BME280;32333;55.844;-3.210;2022-12-05T19:20:12;101042.44;;;2.48;100.00
45872;BME280;32333;55.844;-3.210;2022-12-05T19:22:41;101040.08;;;3.67;100.00
45872;BME280;32333;55.844;-3.210;2022-12-05T19:25:09;101037.50;;;3.14;100.00
45872;BME280;32333;55.844;-3.210;2022-12-05T19:27:38;101037.98;;;3.31;100.00
45872;BME280;32333;55.844;-3.210;2022-12-05T19:30:08;101041.97;;;3.53;100.00
45872;BME280;32333;55.844;-3.210;2022-12-05T19:32:36;101044.41;;;2.70;100.00
45872;BME280;32333;55.844;-3.210;2022-12-05T19:35:05;101046.24;;;3.21;100.00
45872;BME280;32333;55.844;-3.210;2022-12-05T19:37:34;101046.48;;;3.20;100.00
45872;BME280;32333;55.844;-3.210;2022-12-05T19:40:05;101049.04;;;3.33;100.00
45872;BME280;32333;55.844;-3.210;2022-12-05T19:44:37;101042.74;;;4.36;100.00
45872;BME280;32333;55.844;-3.210;2022-12-05T19:47:05;101044.56;;;2.77;100.00
45872;BME280;32333;55.844;-3.210;2022-12-05T19:49:32;101042.23;;;4.63;100.00
45872;BME280;32333;55.844;-3.210;2022-12-05T19:52:00;101044.17;;;3.99;100.00
45872;BME280;32333;55.844;-3.210;2022-12-05T19:54:29;101043.48;;;3.28;100.00
45872;BME280;32333;55.844;-3.210;2022-12-05T19:56:57;101036.35;;;3.61;100.00
45872;BME280;32333;55.844;-3.210;2022-12-05T19:59:27;101042.87;;;2.12;100.00
45872;BME280;32333;55.844;-3.210;2022-12-05T20:01:56;101039.43;;;2.99;100.00
45872;BME280;32333;55.844;-3.210;2022-12-05T20:04:25;101036.36;;;2.22;100.00
45872;BME280;32333;55.844;-3.210;2022-12-05T20:06:56;101036.39;;;3.55;100.00
45872;BME280;32333;55.844;-3.210;2022-12-05T20:09:25;101032.42;;;4.22;100.00
45872;BME280;32333;55.844;-3.210;2022-12-05T20:11:53;101027.29;;;3.90;100.00
45872;BME280;32333;55.844;-3.210;2022-12-05T20:14:37;101025.95;;;4.58;100.00
45872;BME280;32333;55.844;-3.210;2022-12-05T20:17:05;101025.86;;;5.29;100.00
45872;BME280;32333;55.844;-3.210;2022-12-05T20:19:34;101027.44;;;4.34;100.00
45872;BME280;32333;55.844;-3.210;2022-12-05T20:22:02;101025.53;;;3.88;100.00
45872;BME280;32333;55.844;-3.210;2022-12-05T20:24:36;101026.53;;;4.33;100.00
45872;BME280;32333;55.844;-3.210;2022-12-05T20:27:04;101025.12;;;3.79;100.00
45872;BME280;32333;55.844;-3.210;2022-12-05T20:29:33;101019.37;;;4.56;100.00
45872;BME280;32333;55.844;-3.210;2022-12-05T20:32:02;101017.09;;;5.11;100.00
45872;BME280;32333;55.844;-3.210;2022-12-05T20:34:29;101015.55;;;4.95;100.00
45872;BME280;32333;55.844;-3.210;2022-12-05T20:36:57;101016.79;;;5.41;100.00
45872;BME280;32333;55.844;-3.210;2022-12-05T20:39:26;101016.05;;;4.78;100.00
45872;BME280;32333;55.844;-3.210;2022-12-05T20:41:54;101015.59;;;5.00;100.00
45872;BME280;32333;55.844;-3.210;2022-12-05T20:44:36;101015.68;;;5.46;100.00
45872;BME280;32333;55.844;-3.210;2022-12-05T20:47:04;101012.94;;;5.09;100.00
45872;BME280;32333;55.844;-3.210;2022-12-05T20:49:31;101012.12;;;4.53;100.00
45872;BME280;32333;55.844;-3.210;2022-12-05T20:52:00;101006.02;;;5.28;100.00
45872;BME280;32333;55.844;-3.210;2022-12-05T20:54:28;101002.63;;;4.73;100.00
45872;BME280;32333;55.844;-3.210;2022-12-05T21:23:11;101006.92;;;3.20;100.00
45872;BME280;32333;55.844;-3.210;2022-12-05T21:25:41;101005.83;;;3.30;100.00
45872;BME280;32333;55.844;-3.210;2022-12-05T21:28:13;101002.60;;;3.08;100.00
45872;BME280;32333;55.844;-3.210;2022-12-05T21:31:21;101002.55;;;3.37;100.00
45872;BME280;32333;55.844;-3.210;2022-12-05T21:35:47;101008.76;;;3.69;100.00
45872;BME280;32333;55.844;-3.210;2022-12-05T21:38:21;101009.91;;;3.08;100.00
45872;BME280;32333;55.844;-3.210;2022-12-05T21:40:56;101005.84;;;1.88;100.00
45872;BME280;32333;55.844;-3.210;2022-12-05T22:14:40;100984.14;;;4.30;100.00
45872;BME280;32333;55.844;-3.210;2022-12-05T22:17:08;100983.21;;;4.93;100.00
45872;BME280;32333;55.844;-3.210;2022-12-05T22:19:39;100983.05;;;4.62;100.00
45872;BME280;32333;55.844;-3.210;2022-12-05T22:22:15;100982.44;;;4.64;100.00
45872;BME280;32333;55.844;-3.210;2022-12-05T22:27:42;100978.96;;;6.18;100.00